Rio Bananal, Brazil
Current Conditions -  °F | °C
As of 2:00 AM on Friday 28 Nov 2014 (Local Time) from SBVT Reporting Station
Clear Clear  
Wind Chill: 77°   Ceiling: Unl
Heat Index: 79°   Visibility: 6mi
Dew Point: 70°   Wind: 10mph
Humidity: 78%   Direction: 20°NNE
Pressure: 29.85"   Gusts: NA
Location:  19.26°S, 40.34°W
Report Text: SBVT 280400Z 02009KT CAVOK 25/21 Q1011
Loading
Personal Weather Stations






























Interactive Weather Map New forecast layout! Learn more

10-Day Weather Forecast

Advertisements
Track Severe Weather on mobile